sensor_id;sensor_type;location;lat;lon;timestamp;pressure;altitude;pressure_sealevel;temperature;humidity
28683;BME280;15862;43.062;25.626;2023-01-25T00:00:28;101688.97;;;2.67;97.57
28683;BME280;15862;43.062;25.626;2023-01-25T00:02:53;101693.25;;;2.63;97.89
28683;BME280;15862;43.062;25.626;2023-01-25T00:05:18;101674.75;;;2.49;98.34
28683;BME280;15862;43.062;25.626;2023-01-25T00:07:44;101684.91;;;2.52;99.07
28683;BME280;15862;43.062;25.626;2023-01-25T00:10:10;101672.19;;;2.49;98.78
28683;BME280;15862;43.062;25.626;2023-01-25T00:12:35;101696.66;;;2.62;98.73
28683;BME280;15862;43.062;25.626;2023-01-25T00:15:00;101688.16;;;2.63;98.07
28683;BME280;15862;43.062;25.626;2023-01-25T00:17:26;101689.81;;;2.67;97.69
28683;BME280;15862;43.062;25.626;2023-01-25T00:19:51;101692.41;;;2.64;97.28
28683;BME280;15862;43.062;25.626;2023-01-25T00:22:16;101697.41;;;2.73;98.09
28683;BME280;15862;43.062;25.626;2023-01-25T00:24:42;101690.63;;;2.71;97.59
28683;BME280;15862;43.062;25.626;2023-01-25T00:27:07;101699.03;;;2.77;98.34
28683;BME280;15862;43.062;25.626;2023-01-25T00:29:33;101693.97;;;2.74;98.34
28683;BME280;15862;43.062;25.626;2023-01-25T00:32:35;101694.72;;;2.82;98.34
28683;BME280;15862;43.062;25.626;2023-01-25T00:34:53;101699.84;;;2.79;97.74
28683;BME280;15862;43.062;25.626;2023-01-25T00:37:24;101696.41;;;2.83;97.37
28683;BME280;15862;43.062;25.626;2023-01-25T00:39:52;101673.56;;;2.73;96.93
28683;BME280;15862;43.062;25.626;2023-01-25T00:42:18;101669.41;;;2.67;96.84
28683;BME280;15862;43.062;25.626;2023-01-25T00:44:44;101683.72;;;2.79;97.57
28683;BME280;15862;43.062;25.626;2023-01-25T00:47:11;101680.31;;;2.78;97.22
28683;BME280;15862;43.062;25.626;2023-01-25T00:49:38;101686.25;;;2.80;97.44
28683;BME280;15862;43.062;25.626;2023-01-25T00:52:04;101685.47;;;2.74;97.05
28683;BME280;15862;43.062;25.626;2023-01-25T00:54:30;101685.31;;;2.84;96.45
28683;BME280;15862;43.062;25.626;2023-01-25T00:56:55;101677.72;;;2.81;96.41
28683;BME280;15862;43.062;25.626;2023-01-25T00:59:22;101678.56;;;2.83;95.95
28683;BME280;15862;43.062;25.626;2023-01-25T01:01:48;101670.03;;;2.83;96.16
28683;BME280;15862;43.062;25.626;2023-01-25T01:04:14;101670.84;;;2.86;95.42
28683;BME280;15862;43.062;25.626;2023-01-25T01:06:40;101664.16;;;2.78;95.35
28683;BME280;15862;43.062;25.626;2023-01-25T01:09:10;101665.06;;;2.74;95.07
28683;BME280;15862;43.062;25.626;2023-01-25T01:11:36;101663.38;;;2.74;95.08
28683;BME280;15862;43.062;25.626;2023-01-25T01:14:02;101652.38;;;2.69;94.96
28683;BME280;15862;43.062;25.626;2023-01-25T01:16:27;101655.84;;;2.65;93.99
28683;BME280;15862;43.062;25.626;2023-01-25T01:18:52;101633.03;;;2.55;92.90
28683;BME280;15862;43.062;25.626;2023-01-25T01:21:18;101653.28;;;2.65;92.39
28683;BME280;15862;43.062;25.626;2023-01-25T01:23:44;101634.88;;;2.42;91.56
28683;BME280;15862;43.062;25.626;2023-01-25T01:26:15;101647.56;;;2.48;92.39
28683;BME280;15862;43.062;25.626;2023-01-25T01:28:41;101647.56;;;2.48;92.62
28683;BME280;15862;43.062;25.626;2023-01-25T01:31:10;101651.97;;;2.37;92.27
28683;BME280;15862;43.062;25.626;2023-01-25T01:33:36;101643.47;;;2.35;92.85
28683;BME280;15862;43.062;25.626;2023-01-25T01:36:10;101635.06;;;2.30;90.72
28683;BME280;15862;43.062;25.626;2023-01-25T01:38:36;101646.81;;;2.40;91.80
28683;BME280;15862;43.062;25.626;2023-01-25T01:41:01;101639.09;;;2.46;92.19
28683;BME280;15862;43.062;25.626;2023-01-25T01:43:27;101641.72;;;2.42;91.97
28683;BME280;15862;43.062;25.626;2023-01-25T01:45:55;101626.44;;;2.39;92.53
28683;BME280;15862;43.062;25.626;2023-01-25T01:54:02;101645.16;;;2.38;93.31
28683;BME280;15862;43.062;25.626;2023-01-25T01:57:04;101634.88;;;2.45;94.23
28683;BME280;15862;43.062;25.626;2023-01-25T01:59:36;101638.22;;;2.49;94.58
28683;BME280;15862;43.062;25.626;2023-01-25T02:02:06;101645.94;;;2.43;95.14
28683;BME280;15862;43.062;25.626;2023-01-25T02:04:31;101638.31;;;2.41;95.39
28683;BME280;15862;43.062;25.626;2023-01-25T02:07:02;101633.91;;;2.52;95.97
28683;BME280;15862;43.062;25.626;2023-01-25T02:09:31;101634.81;;;2.50;96.90
28683;BME280;15862;43.062;25.626;2023-01-25T02:11:59;101630.44;;;2.56;96.16
28683;BME280;15862;43.062;25.626;2023-01-25T02:14:27;101635.56;;;2.56;96.35
28683;BME280;15862;43.062;25.626;2023-01-25T02:16:53;101616.91;;;2.53;96.67
28683;BME280;15862;43.062;25.626;2023-01-25T02:22:00;101611.75;;;2.57;97.14
28683;BME280;15862;43.062;25.626;2023-01-25T02:24:32;101633.56;;;2.76;97.28
28683;BME280;15862;43.062;25.626;2023-01-25T02:26:59;101626.78;;;2.74;97.00
28683;BME280;15862;43.062;25.626;2023-01-25T02:29:25;101631.91;;;2.75;97.79
28683;BME280;15862;43.062;25.626;2023-01-25T02:32:02;101631.84;;;2.78;97.20
28683;BME280;15862;43.062;25.626;2023-01-25T02:34:28;101627.53;;;2.82;96.60
28683;BME280;15862;43.062;25.626;2023-01-25T02:36:53;101614.94;;;2.71;96.28
28683;BME280;15862;43.062;25.626;2023-01-25T02:39:19;101623.44;;;2.70;95.98
28683;BME280;15862;43.062;25.626;2023-01-25T02:41:45;101615.91;;;2.63;97.29
28683;BME280;15862;43.062;25.626;2023-01-25T02:44:24;101616.66;;;2.69;97.27
28683;BME280;15862;43.062;25.626;2023-01-25T02:46:50;101611.56;;;2.69;98.13
28683;BME280;15862;43.062;25.626;2023-01-25T02:49:17;101621.72;;;2.72;97.03
28683;BME280;15862;43.062;25.626;2023-01-25T02:51:46;101619.22;;;2.71;98.22
28683;BME280;15862;43.062;25.626;2023-01-25T02:54:14;101618.25;;;2.78;99.81
28683;BME280;15862;43.062;25.626;2023-01-25T02:56:40;101607.31;;;2.70;100.00
28683;BME280;15862;43.062;25.626;2023-01-25T02:59:07;101616.63;;;2.72;100.00
28683;BME280;15862;43.062;25.626;2023-01-25T03:01:36;101628.41;;;2.81;100.00
28683;BME280;15862;43.062;25.626;2023-01-25T03:04:03;101621.59;;;2.81;100.00
28683;BME280;15862;43.062;25.626;2023-01-25T03:06:29;101604.72;;;2.71;100.00
28683;BME280;15862;43.062;25.626;2023-01-25T03:08:55;101636.84;;;2.84;100.00
28683;BME280;15862;43.062;25.626;2023-01-25T03:11:20;101623.28;;;2.82;100.00
28683;BME280;15862;43.062;25.626;2023-01-25T03:13:46;101620.78;;;2.79;99.59
28683;BME280;15862;43.062;25.626;2023-01-25T03:16:12;101626.81;;;2.72;99.06
28683;BME280;15862;43.062;25.626;2023-01-25T03:18:38;101621.81;;;2.66;99.19
28683;BME280;15862;43.062;25.626;2023-01-25T03:21:11;101628.69;;;2.61;100.00
28683;BME280;15862;43.062;25.626;2023-01-25T03:23:38;101630.34;;;2.64;100.00
28683;BME280;15862;43.062;25.626;2023-01-25T03:26:22;101629.44;;;2.68;100.00
28683;BME280;15862;43.062;25.626;2023-01-25T03:28:48;101631.09;;;2.70;100.00
28683;BME280;15862;43.062;25.626;2023-01-25T03:31:15;101626.16;;;2.60;100.00
28683;BME280;15862;43.062;25.626;2023-01-25T03:33:41;101638.84;;;2.64;99.39
28683;BME280;15862;43.062;25.626;2023-01-25T03:36:08;101632.91;;;2.64;99.46
28683;BME280;15862;43.062;25.626;2023-01-25T03:38:34;101621.03;;;2.60;98.77
28683;BME280;15862;43.062;25.626;2023-01-25T03:41:00;101625.16;;;2.70;99.12
28683;BME280;15862;43.062;25.626;2023-01-25T03:43:25;101626.78;;;2.74;99.70
28683;BME280;15862;43.062;25.626;2023-01-25T03:45:56;101636.16;;;2.73;100.00
28683;BME280;15862;43.062;25.626;2023-01-25T03:48:23;101643.75;;;2.76;100.00
28683;BME280;15862;43.062;25.626;2023-01-25T03:50:50;101645.44;;;2.77;100.00
28683;BME280;15862;43.062;25.626;2023-01-25T03:53:18;101633.72;;;2.66;99.33
28683;BME280;15862;43.062;25.626;2023-01-25T03:58:22;101640.56;;;2.62;99.74
28683;BME280;15862;43.062;25.626;2023-01-25T04:00:47;101627.09;;;2.53;99.78
28683;BME280;15862;43.062;25.626;2023-01-25T04:03:13;101637.28;;;2.56;99.54
28683;BME280;15862;43.062;25.626;2023-01-25T04:05:38;101638.00;;;2.64;99.20
28683;BME280;15862;43.062;25.626;2023-01-25T04:08:04;101647.31;;;2.66;100.00
28683;BME280;15862;43.062;25.626;2023-01-25T04:10:29;101643.84;;;2.72;99.85
28683;BME280;15862;43.062;25.626;2023-01-25T04:12:54;101622.72;;;2.62;100.00
28683;BME280;15862;43.062;25.626;2023-01-25T04:15:20;101636.38;;;2.58;98.70
28683;BME280;15862;43.062;25.626;2023-01-25T04:17:45;101634.63;;;2.62;99.33
28683;BME280;15862;43.062;25.626;2023-01-25T04:20:11;101633.88;;;2.54;98.48
28683;BME280;15862;43.062;25.626;2023-01-25T04:22:36;101636.38;;;2.58;99.18
28683;BME280;15862;43.062;25.626;2023-01-25T04:25:02;101623.81;;;2.46;100.00
28683;BME280;15862;43.062;25.626;2023-01-25T04:27:27;101633.84;;;2.58;100.00
28683;BME280;15862;43.062;25.626;2023-01-25T04:29:52;101633.84;;;2.58;100.00
28683;BME280;15862;43.062;25.626;2023-01-25T04:32:18;101640.63;;;2.59;100.00
28683;BME280;15862;43.062;25.626;2023-01-25T04:34:43;101637.16;;;2.63;100.00
28683;BME280;15862;43.062;25.626;2023-01-25T04:37:09;101632.22;;;2.51;100.00
28683;BME280;15862;43.062;25.626;2023-01-25T04:39:34;101644.84;;;2.62;100.00
28683;BME280;15862;43.062;25.626;2023-01-25T04:41:59;101647.31;;;2.66;100.00
28683;BME280;15862;43.062;25.626;2023-01-25T04:44:25;101651.50;;;2.72;100.00
28683;BME280;15862;43.062;25.626;2023-01-25T04:46:50;101654.78;;;2.80;100.00
28683;BME280;15862;43.062;25.626;2023-01-25T04:49:16;101654.72;;;2.83;100.00
28683;BME280;15862;43.062;25.626;2023-01-25T04:51:41;101652.22;;;2.81;100.00
28683;BME280;15862;43.062;25.626;2023-01-25T04:54:06;101648.81;;;2.82;100.00
28683;BME280;15862;43.062;25.626;2023-01-25T04:56:32;101647.88;;;2.86;100.00
28683;BME280;15862;43.062;25.626;2023-01-25T04:58:57;101649.72;;;2.77;98.82
28683;BME280;15862;43.062;25.626;2023-01-25T05:01:22;101647.94;;;2.82;99.06
28683;BME280;15862;43.062;25.626;2023-01-25T05:03:48;101653.09;;;2.79;99.36
28683;BME280;15862;43.062;25.626;2023-01-25T05:06:13;101647.16;;;2.78;99.93
28683;BME280;15862;43.062;25.626;2023-01-25T05:08:39;101651.38;;;2.79;99.77
28683;BME280;15862;43.062;25.626;2023-01-25T05:11:04;101623.63;;;2.58;98.96
28683;BME280;15862;43.062;25.626;2023-01-25T05:13:29;101645.44;;;2.77;98.67
28683;BME280;15862;43.062;25.626;2023-01-25T05:15:55;101656.50;;;2.78;100.00
28683;BME280;15862;43.062;25.626;2023-01-25T05:18:21;101646.28;;;2.79;100.00
28683;BME280;15862;43.062;25.626;2023-01-25T05:20:52;101646.56;;;2.61;100.00
28683;BME280;15862;43.062;25.626;2023-01-25T05:23:17;101649.22;;;2.52;100.00
28683;BME280;15862;43.062;25.626;2023-01-25T05:25:42;101649.97;;;2.60;100.00
28683;BME280;15862;43.062;25.626;2023-01-25T05:28:27;101646.41;;;2.70;100.00
28683;BME280;15862;43.062;25.626;2023-01-25T05:30:52;101638.84;;;2.64;100.00
28683;BME280;15862;43.062;25.626;2023-01-25T05:33:17;101638.00;;;2.62;99.63
28683;BME280;15862;43.062;25.626;2023-01-25T05:35:43;101651.50;;;2.70;99.83
28683;BME280;15862;43.062;25.626;2023-01-25T05:38:08;101650.72;;;2.68;100.00
28683;BME280;15862;43.062;25.626;2023-01-25T05:40:34;101654.03;;;2.73;100.00
28683;BME280;15862;43.062;25.626;2023-01-25T05:42:59;101654.84;;;2.75;100.00
28683;BME280;15862;43.062;25.626;2023-01-25T05:45:25;101653.97;;;2.76;100.00
28683;BME280;15862;43.062;25.626;2023-01-25T05:47:55;101653.09;;;2.79;100.00
28683;BME280;15862;43.062;25.626;2023-01-25T05:50:21;101652.31;;;2.75;100.00
28683;BME280;15862;43.062;25.626;2023-01-25T05:52:47;101654.00;;;2.75;100.00
28683;BME280;15862;43.062;25.626;2023-01-25T05:55:12;101654.84;;;2.74;100.00
28683;BME280;15862;43.062;25.626;2023-01-25T05:57:37;101656.56;;;2.73;100.00
28683;BME280;15862;43.062;25.626;2023-01-25T06:00:04;101646.41;;;2.70;100.00
28683;BME280;15862;43.062;25.626;2023-01-25T06:02:30;101649.81;;;2.69;100.00
28683;BME280;15862;43.062;25.626;2023-01-25T06:04:56;101656.59;;;2.72;100.00
28683;BME280;15862;43.062;25.626;2023-01-25T06:07:22;101658.44;;;2.61;100.00
28683;BME280;15862;43.062;25.626;2023-01-25T06:09:47;101658.47;;;2.59;100.00
28683;BME280;15862;43.062;25.626;2023-01-25T06:12:12;101660.94;;;2.65;100.00
28683;BME280;15862;43.062;25.626;2023-01-25T06:14:38;101669.41;;;2.67;100.00
28683;BME280;15862;43.062;25.626;2023-01-25T06:17:03;101664.22;;;2.73;100.00
28683;BME280;15862;43.062;25.626;2023-01-25T06:19:29;101666.22;;;2.53;100.00
28683;BME280;15862;43.062;25.626;2023-01-25T06:21:54;101668.13;;;2.36;100.00
28683;BME280;15862;43.062;25.626;2023-01-25T06:24:19;101671.34;;;2.50;100.00
28683;BME280;15862;43.062;25.626;2023-01-25T06:26:45;101671.38;;;2.49;100.00
28683;BME280;15862;43.062;25.626;2023-01-25T06:29:10;101673.84;;;2.52;100.00
28683;BME280;15862;43.062;25.626;2023-01-25T06:31:36;101670.56;;;2.45;100.00
28683;BME280;15862;43.062;25.626;2023-01-25T06:34:01;101675.69;;;2.42;100.00
28683;BME280;15862;43.062;25.626;2023-01-25T06:36:30;101680.78;;;2.42;100.00
28683;BME280;15862;43.062;25.626;2023-01-25T06:38:56;101656.38;;;2.24;100.00
28683;BME280;15862;43.062;25.626;2023-01-25T06:41:22;101672.34;;;2.37;100.00
28683;BME280;15862;43.062;25.626;2023-01-25T06:43:50;101674.00;;;2.43;100.00
28683;BME280;15862;43.062;25.626;2023-01-25T06:46:16;101670.56;;;2.44;100.00
28683;BME280;15862;43.062;25.626;2023-01-25T06:48:42;101678.97;;;2.50;100.00
28683;BME280;15862;43.062;25.626;2023-01-25T06:51:12;101654.41;;;2.46;100.00
28683;BME280;15862;43.062;25.626;2023-01-25T06:53:40;101664.47;;;2.57;100.00
28683;BME280;15862;43.062;25.626;2023-01-25T06:56:08;101682.84;;;2.78;100.00
28683;BME280;15862;43.062;25.626;2023-01-25T06:58:35;101681.88;;;2.88;100.00
28683;BME280;15862;43.062;25.626;2023-01-25T07:01:04;101679.25;;;2.91;100.00
28683;BME280;15862;43.062;25.626;2023-01-25T07:03:30;101678.38;;;2.95;100.00
28683;BME280;15862;43.062;25.626;2023-01-25T07:06:00;101673.16;;;3.04;100.00
28683;BME280;15862;43.062;25.626;2023-01-25T07:08:26;101679.00;;;3.09;100.00
28683;BME280;15862;43.062;25.626;2023-01-25T07:10:57;101674.66;;;3.15;100.00
28683;BME280;15862;43.062;25.626;2023-01-25T07:13:24;101680.38;;;3.31;100.00
28683;BME280;15862;43.062;25.626;2023-01-25T07:15:54;101658.34;;;3.24;100.00
28683;BME280;15862;43.062;25.626;2023-01-25T07:18:20;101680.16;;;3.43;100.00
28683;BME280;15862;43.062;25.626;2023-01-25T07:20:46;101684.50;;;3.38;100.00
28683;BME280;15862;43.062;25.626;2023-01-25T07:23:11;101687.03;;;3.41;100.00
28683;BME280;15862;43.062;25.626;2023-01-25T07:25:36;101666.78;;;3.30;100.00
28683;BME280;15862;43.062;25.626;2023-01-25T07:28:03;101686.00;;;3.51;100.00
28683;BME280;15862;43.062;25.626;2023-01-25T07:30:28;101688.50;;;3.54;100.00
28683;BME280;15862;43.062;25.626;2023-01-25T07:32:54;101685.97;;;3.54;100.00
28683;BME280;15862;43.062;25.626;2023-01-25T07:35:19;101689.38;;;3.53;100.00
28683;BME280;15862;43.062;25.626;2023-01-25T07:37:45;101676.81;;;3.41;100.00
28683;BME280;15862;43.062;25.626;2023-01-25T07:40:10;101692.03;;;3.47;100.00
28683;BME280;15862;43.062;25.626;2023-01-25T07:42:37;101681.03;;;3.42;100.00
28683;BME280;15862;43.062;25.626;2023-01-25T07:45:03;101695.50;;;3.43;100.00
28683;BME280;15862;43.062;25.626;2023-01-25T07:47:28;101699.56;;;3.54;100.00
28683;BME280;15862;43.062;25.626;2023-01-25T07:49:54;101669.06;;;3.47;100.00
28683;BME280;15862;43.062;25.626;2023-01-25T07:52:19;101685.78;;;3.64;100.00
28683;BME280;15862;43.062;25.626;2023-01-25T07:54:44;101684.06;;;3.65;100.00
28683;BME280;15862;43.062;25.626;2023-01-25T07:57:11;101686.56;;;3.68;100.00
28683;BME280;15862;43.062;25.626;2023-01-25T07:59:36;101681.41;;;3.71;100.00
28683;BME280;15862;43.062;25.626;2023-01-25T08:02:02;101662.91;;;3.58;98.73
28683;BME280;15862;43.062;25.626;2023-01-25T08:04:28;101681.41;;;3.71;99.60
28683;BME280;15862;43.062;25.626;2023-01-25T08:06:53;101682.13;;;3.77;98.68
28683;BME280;15862;43.062;25.626;2023-01-25T08:09:18;101667.13;;;3.59;98.98
28683;BME280;15862;43.062;25.626;2023-01-25T08:11:44;101684.75;;;3.73;98.31
28683;BME280;15862;43.062;25.626;2023-01-25T08:14:10;101675.22;;;3.82;99.47
28683;BME280;15862;43.062;25.626;2023-01-25T08:16:36;101669.25;;;3.84;98.38
28683;BME280;15862;43.062;25.626;2023-01-25T08:19:02;101665.69;;;3.91;99.12
28683;BME280;15862;43.062;25.626;2023-01-25T08:21:29;101653.16;;;3.78;97.55
28683;BME280;15862;43.062;25.626;2023-01-25T08:24:00;101669.53;;;4.12;96.70
28683;BME280;15862;43.062;25.626;2023-01-25T08:26:26;101667.03;;;4.10;96.01
28683;BME280;15862;43.062;25.626;2023-01-25T08:28:52;101670.75;;;3.94;96.57
28683;BME280;15862;43.062;25.626;2023-01-25T08:31:24;101673.16;;;4.00;96.58
28683;BME280;15862;43.062;25.626;2023-01-25T08:33:51;101671.31;;;4.08;97.16
28683;BME280;15862;43.062;25.626;2023-01-25T08:36:18;101671.16;;;4.17;95.30
28683;BME280;15862;43.062;25.626;2023-01-25T08:38:45;101658.94;;;3.87;96.81
28683;BME280;15862;43.062;25.626;2023-01-25T08:41:16;101673.03;;;4.08;98.29
28683;BME280;15862;43.062;25.626;2023-01-25T08:43:44;101674.28;;;4.31;97.78
28683;BME280;15862;43.062;25.626;2023-01-25T08:46:11;101672.22;;;4.48;95.94
28683;BME280;15862;43.062;25.626;2023-01-25T08:48:36;101667.13;;;4.48;95.99
28683;BME280;15862;43.062;25.626;2023-01-25T08:51:02;101667.94;;;4.50;94.81
28683;BME280;15862;43.062;25.626;2023-01-25T08:53:31;101664.28;;;4.60;93.28
28683;BME280;15862;43.062;25.626;2023-01-25T08:56:09;101663.91;;;4.78;94.11
28683;BME280;15862;43.062;25.626;2023-01-25T08:58:41;101670.63;;;4.82;94.11
28683;BME280;15862;43.062;25.626;2023-01-25T09:01:08;101665.38;;;4.88;96.03
28683;BME280;15862;43.062;25.626;2023-01-25T09:03:36;101652.47;;;4.92;91.02
28683;BME280;15862;43.062;25.626;2023-01-25T09:06:02;101664.31;;;4.98;88.86
28683;BME280;15862;43.062;25.626;2023-01-25T09:08:27;101651.50;;;4.98;89.74
28683;BME280;15862;43.062;25.626;2023-01-25T09:10:53;101663.28;;;5.05;91.00
28683;BME280;15862;43.062;25.626;2023-01-25T09:13:18;101654.78;;;5.03;88.96
28683;BME280;15862;43.062;25.626;2023-01-25T09:15:44;101649.09;;;5.27;86.32
28683;BME280;15862;43.062;25.626;2023-01-25T09:18:11;101643.16;;;5.26;86.04
28683;BME280;15862;43.062;25.626;2023-01-25T09:20:39;101648.28;;;5.26;88.66
28683;BME280;15862;43.062;25.626;2023-01-25T09:23:04;101633.78;;;5.24;83.36
28683;BME280;15862;43.062;25.626;2023-01-25T09:25:30;101631.38;;;5.19;84.17
28683;BME280;15862;43.062;25.626;2023-01-25T09:27:56;101636.28;;;5.27;84.98
28683;BME280;15862;43.062;25.626;2023-01-25T09:30:21;101631.97;;;5.28;84.01
28683;BME280;15862;43.062;25.626;2023-01-25T09:32:50;101631.63;;;5.42;83.22
28683;BME280;15862;43.062;25.626;2023-01-25T09:35:16;101620.00;;;5.62;83.98
28683;BME280;15862;43.062;25.626;2023-01-25T09:37:41;101599.72;;;5.53;81.11
28683;BME280;15862;43.062;25.626;2023-01-25T09:40:21;101596.25;;;5.56;79.58
28683;BME280;15862;43.062;25.626;2023-01-25T09:43:11;101611.75;;;5.83;79.99
28683;BME280;15862;43.062;25.626;2023-01-25T09:45:40;101606.56;;;5.86;77.95
28683;BME280;15862;43.062;25.626;2023-01-25T09:48:15;101581.56;;;5.94;74.33
28683;BME280;15862;43.062;25.626;2023-01-25T09:53:48;101592.88;;;5.87;73.41
28683;BME280;15862;43.062;25.626;2023-01-25T09:56:24;101593.91;;;6.10;71.47
28683;BME280;15862;43.062;25.626;2023-01-25T09:58:54;101568.34;;;5.77;71.73
28683;BME280;15862;43.062;25.626;2023-01-25T10:03:54;101572.00;;;5.67;72.89
28683;BME280;15862;43.062;25.626;2023-01-25T10:06:23;101574.19;;;5.82;71.45
28683;BME280;15862;43.062;25.626;2023-01-25T10:08:59;101558.81;;;5.50;72.50
28683;BME280;15862;43.062;25.626;2023-01-25T10:11:29;101566.66;;;5.76;73.33
28683;BME280;15862;43.062;25.626;2023-01-25T10:13:56;101562.69;;;5.97;73.87
28683;BME280;15862;43.062;25.626;2023-01-25T10:16:29;101527.22;;;5.82;71.71
28683;BME280;15862;43.062;25.626;2023-01-25T10:19:07;101533.00;;;5.88;70.29
28683;BME280;15862;43.062;25.626;2023-01-25T10:21:40;101535.66;;;5.53;72.74
28683;BME280;15862;43.062;25.626;2023-01-25T10:27:02;101536.97;;;5.37;71.60
28683;BME280;15862;43.062;25.626;2023-01-25T10:29:37;101539.09;;;5.52;71.21
28683;BME280;15862;43.062;25.626;2023-01-25T10:32:24;101514.44;;;5.80;70.90
28683;BME280;15862;43.062;25.626;2023-01-25T10:34:51;101534.53;;;5.95;69.34
28683;BME280;15862;43.062;25.626;2023-01-25T10:37:22;101519.88;;;5.99;67.88
28683;BME280;15862;43.062;25.626;2023-01-25T10:40:05;101521.81;;;5.91;65.87
28683;BME280;15862;43.062;25.626;2023-01-25T10:42:44;101514.63;;;6.03;64.73
28683;BME280;15862;43.062;25.626;2023-01-25T10:45:13;101504.56;;;5.96;63.96
28683;BME280;15862;43.062;25.626;2023-01-25T10:47:41;101495.00;;;6.02;64.99
28683;BME280;15862;43.062;25.626;2023-01-25T10:50:09;101504.59;;;5.64;64.73
28683;BME280;15862;43.062;25.626;2023-01-25T10:52:35;101498.34;;;5.74;66.49
28683;BME280;15862;43.062;25.626;2023-01-25T10:57:31;101483.22;;;5.95;64.46
28683;BME280;15862;43.062;25.626;2023-01-25T10:59:59;101472.97;;;5.95;65.38
28683;BME280;15862;43.062;25.626;2023-01-25T11:02:43;101467.28;;;6.13;63.11
28683;BME280;15862;43.062;25.626;2023-01-25T11:05:25;101460.19;;;6.21;62.83
28683;BME280;15862;43.062;25.626;2023-01-25T11:07:52;101460.66;;;6.33;63.19
28683;BME280;15862;43.062;25.626;2023-01-25T11:10:32;101458.63;;;6.43;63.50
28683;BME280;15862;43.062;25.626;2023-01-25T11:16:08;101448.13;;;6.50;65.40
28683;BME280;15862;43.062;25.626;2023-01-25T11:18:48;101432.94;;;6.69;64.98
28683;BME280;15862;43.062;25.626;2023-01-25T11:21:22;101443.03;;;6.75;64.54
28683;BME280;15862;43.062;25.626;2023-01-25T11:26:34;101432.66;;;6.26;64.41
28683;BME280;15862;43.062;25.626;2023-01-25T11:31:35;101429.59;;;6.15;65.76
28683;BME280;15862;43.062;25.626;2023-01-25T11:34:00;101432.78;;;5.96;64.30
28683;BME280;15862;43.062;25.626;2023-01-25T11:50:35;101423.63;;;4.98;67.47
28683;BME280;15862;43.062;25.626;2023-01-25T11:56:43;101419.09;;;4.77;70.19
28683;BME280;15862;43.062;25.626;2023-01-25T12:07:38;101418.50;;;4.66;73.86
28683;BME280;15862;43.062;25.626;2023-01-25T12:18:35;101408.25;;;4.66;75.98
28683;BME280;15862;43.062;25.626;2023-01-25T12:29:23;101400.63;;;4.31;78.11
28683;BME280;15862;43.062;25.626;2023-01-25T12:32:04;101405.84;;;4.28;78.09
28683;BME280;15862;43.062;25.626;2023-01-25T12:34:37;101406.78;;;4.24;79.73
28683;BME280;15862;43.062;25.626;2023-01-25T12:37:17;101399.31;;;4.15;80.15
28683;BME280;15862;43.062;25.626;2023-01-25T12:39:53;101404.66;;;4.06;81.36
28683;BME280;15862;43.062;25.626;2023-01-25T12:42:23;101395.97;;;4.13;81.99
28683;BME280;15862;43.062;25.626;2023-01-25T12:44:59;101390.56;;;4.25;81.35
28683;BME280;15862;43.062;25.626;2023-01-25T12:47:33;101396.97;;;4.41;81.81
28683;BME280;15862;43.062;25.626;2023-01-25T12:52:55;101396.16;;;4.39;79.17
28683;BME280;15862;43.062;25.626;2023-01-25T12:55:22;101399.97;;;4.23;80.58
28683;BME280;15862;43.062;25.626;2023-01-25T13:00:38;101372.50;;;4.31;82.99
28683;BME280;15862;43.062;25.626;2023-01-25T13:03:20;101390.19;;;4.40;83.69
28683;BME280;15862;43.062;25.626;2023-01-25T13:13:50;101376.41;;;4.46;82.29
28683;BME280;15862;43.062;25.626;2023-01-25T13:18:54;101368.63;;;4.49;83.95
28683;BME280;15862;43.062;25.626;2023-01-25T13:21:43;101376.69;;;4.35;85.31
28683;BME280;15862;43.062;25.626;2023-01-25T13:31:55;101378.69;;;3.86;92.01
28683;BME280;15862;43.062;25.626;2023-01-25T13:39:50;101377.97;;;3.81;91.38
28683;BME280;15862;43.062;25.626;2023-01-25T13:42:23;101369.28;;;3.88;91.95
28683;BME280;15862;43.062;25.626;2023-01-25T13:44:53;101373.06;;;4.09;91.41
28683;BME280;15862;43.062;25.626;2023-01-25T13:47:23;101367.09;;;4.08;90.74
28683;BME280;15862;43.062;25.626;2023-01-25T13:49:59;101362.13;;;4.02;91.63
28683;BME280;15862;43.062;25.626;2023-01-25T13:52:27;101366.16;;;3.78;92.31
28683;BME280;15862;43.062;25.626;2023-01-25T13:54:56;101358.16;;;3.55;95.32
28683;BME280;15862;43.062;25.626;2023-01-25T13:57:31;101362.59;;;3.47;96.57
28683;BME280;15862;43.062;25.626;2023-01-25T14:00:14;101365.03;;;3.51;97.53
28683;BME280;15862;43.062;25.626;2023-01-25T14:02:42;101365.19;;;3.44;98.83
28683;BME280;15862;43.062;25.626;2023-01-25T14:05:19;101359.25;;;3.43;98.92
28683;BME280;15862;43.062;25.626;2023-01-25T14:07:48;101367.50;;;3.54;97.46
28683;BME280;15862;43.062;25.626;2023-01-25T14:10:17;101360.00;;;3.48;97.73
28683;BME280;15862;43.062;25.626;2023-01-25T14:12:47;101354.75;;;3.54;98.34
28683;BME280;15862;43.062;25.626;2023-01-25T14:15:20;101337.28;;;3.35;97.69
28683;BME280;15862;43.062;25.626;2023-01-25T14:18:14;101348.09;;;3.47;98.82
28683;BME280;15862;43.062;25.626;2023-01-25T14:20:50;101350.44;;;3.56;100.00
28683;BME280;15862;43.062;25.626;2023-01-25T14:25:48;101344.75;;;3.44;100.00
28683;BME280;15862;43.062;25.626;2023-01-25T14:28:14;101334.63;;;3.41;100.00
28683;BME280;15862;43.062;25.626;2023-01-25T14:30:40;101348.41;;;3.34;100.00
28683;BME280;15862;43.062;25.626;2023-01-25T14:33:30;101349.94;;;3.41;100.00
28683;BME280;15862;43.062;25.626;2023-01-25T14:36:14;101343.50;;;3.25;100.00
28683;BME280;15862;43.062;25.626;2023-01-25T14:38:41;101360.41;;;3.29;100.00